createdAt,value
2023-01-13T00:02:22.257Z,85.37
2023-01-13T00:05:26.703Z,85.06
2023-01-13T00:08:29.739Z,84.72
2023-01-13T00:11:32.518Z,85.20
2023-01-13T00:14:36.468Z,85.35
2023-01-13T00:17:39.430Z,85.24
2023-01-13T00:20:42.191Z,85.48
2023-01-13T00:23:45.446Z,85.72
2023-01-13T00:26:48.516Z,85.82
2023-01-13T00:29:51.308Z,85.69
2023-01-13T00:32:54.073Z,85.72
2023-01-13T00:36:01.867Z,85.38
2023-01-13T00:39:04.673Z,85.02
2023-01-13T00:42:26.439Z,84.91
2023-01-13T00:45:29.307Z,85.78
2023-01-13T00:48:32.933Z,85.89
2023-01-13T00:51:35.833Z,85.51
2023-01-13T00:54:38.628Z,85.82
2023-01-13T00:57:41.412Z,85.98
2023-01-13T01:00:45.873Z,85.65
2023-01-13T01:03:52.290Z,85.85
2023-01-13T01:06:55.087Z,85.94
2023-01-13T01:09:58.064Z,85.97
2023-01-13T01:13:01.008Z,85.83
2023-01-13T01:16:09.014Z,85.64
2023-01-13T01:19:12.022Z,85.51
2023-01-13T01:22:16.137Z,85.60
2023-01-13T01:25:18.904Z,85.20
2023-01-13T01:28:21.734Z,85.76
2023-01-13T01:31:31.542Z,85.77
2023-01-13T01:34:34.370Z,85.15
2023-01-13T01:37:37.200Z,85.17
2023-01-13T01:40:40.051Z,84.68
2023-01-13T01:44:03.859Z,84.81
2023-01-13T01:47:07.124Z,84.59
2023-01-13T01:50:10.668Z,84.72
2023-01-13T01:53:16.150Z,84.64
2023-01-13T01:56:20.021Z,83.90
2023-01-13T01:59:24.011Z,84.18
2023-01-13T02:02:29.003Z,84.83
2023-01-13T02:05:34.307Z,84.90
2023-01-13T02:08:39.067Z,85.08
2023-01-13T02:12:00.923Z,84.98
2023-01-13T02:15:13.253Z,85.14
2023-01-13T02:18:16.260Z,85.38
2023-01-13T02:22:09.552Z,85.66
2023-01-13T02:25:48.827Z,85.26
2023-01-13T02:29:36.196Z,85.53
2023-01-13T02:32:56.195Z,85.37
2023-01-13T02:36:06.624Z,85.11
2023-01-13T02:39:21.521Z,84.61
2023-01-13T02:42:49.612Z,84.44
2023-01-13T02:46:18.057Z,84.23
2023-01-13T02:49:53.595Z,84.14
2023-01-13T02:53:01.320Z,83.86
2023-01-13T02:56:06.132Z,84.06
2023-01-13T02:59:10.064Z,83.89
2023-01-13T03:02:16.761Z,83.94
2023-01-13T03:05:20.185Z,84.11
2023-01-13T03:08:39.801Z,84.24
2023-01-13T03:12:14.284Z,84.20
2023-01-13T03:15:37.156Z,84.37
2023-01-13T03:19:09.702Z,84.34
2023-01-13T03:22:30.953Z,84.31
2023-01-13T03:25:43.415Z,84.34
2023-01-13T03:28:52.580Z,84.38
2023-01-13T03:32:01.100Z,84.52
2023-01-13T03:35:17.686Z,84.77
2023-01-13T03:38:26.425Z,85.02
2023-01-13T03:41:54.614Z,85.11
2023-01-13T03:45:12.636Z,84.42
2023-01-13T03:48:19.026Z,84.64
2023-01-13T03:51:26.190Z,84.91
2023-01-13T03:54:32.966Z,85.03
2023-01-13T03:57:46.639Z,84.63
2023-01-13T04:01:03.539Z,85.59
2023-01-13T04:04:12.721Z,85.64
2023-01-13T04:07:28.855Z,86.07
2023-01-13T04:10:40.079Z,85.49
2023-01-13T04:13:46.099Z,86.21
2023-01-13T04:16:49.588Z,86.14
2023-01-13T04:19:52.078Z,86.27
2023-01-13T04:22:55.157Z,86.16
2023-01-13T04:25:57.694Z,86.00
2023-01-13T04:29:00.761Z,86.06
2023-01-13T04:32:03.605Z,86.21
2023-01-13T04:35:08.424Z,85.96
2023-01-13T04:38:14.451Z,86.07
2023-01-13T04:41:17.582Z,85.20
2023-01-13T04:44:20.122Z,85.08
2023-01-13T04:47:23.346Z,85.48
2023-01-13T04:50:26.432Z,85.60
2023-01-13T04:53:29.574Z,85.72
2023-01-13T04:56:32.216Z,85.25
2023-01-13T04:59:35.282Z,85.49
2023-01-13T05:02:37.827Z,85.73
2023-01-13T05:05:40.976Z,84.91
2023-01-13T05:08:43.493Z,85.07
2023-01-13T05:12:05.456Z,84.03
2023-01-13T05:15:28.642Z,85.23
2023-01-13T05:18:31.767Z,85.73
2023-01-13T05:21:52.862Z,86.18
2023-01-13T05:25:14.503Z,85.31
2023-01-13T05:28:17.289Z,85.68
2023-01-13T05:31:20.454Z,86.37
2023-01-13T05:34:22.980Z,86.01
2023-01-13T05:37:26.910Z,86.34
2023-01-13T05:40:48.424Z,86.74
2023-01-13T05:43:51.509Z,86.62
2023-01-13T05:46:54.069Z,86.60
2023-01-13T05:49:57.148Z,86.13
2023-01-13T05:52:59.777Z,86.33
2023-01-13T05:56:07.034Z,86.71
2023-01-13T05:59:10.160Z,86.67
2023-01-13T06:02:13.088Z,86.36
2023-01-13T06:05:15.970Z,86.35
2023-01-13T06:08:19.188Z,86.09
2023-01-13T06:11:22.279Z,86.15
2023-01-13T06:14:25.144Z,86.16
2023-01-13T06:17:27.961Z,85.82
2023-01-13T06:20:31.370Z,85.96
2023-01-13T06:23:38.560Z,85.84
2023-01-13T06:26:41.588Z,85.98
2023-01-13T06:29:44.491Z,86.11
2023-01-13T06:32:53.316Z,85.91
2023-01-13T06:36:00.151Z,85.89
2023-01-13T06:39:04.733Z,85.20
2023-01-13T06:42:26.412Z,84.95
2023-01-13T06:45:31.418Z,85.58
2023-01-13T06:48:35.556Z,85.18
2023-01-13T06:51:38.555Z,85.38
2023-01-13T06:54:41.454Z,85.74
2023-01-13T06:57:52.665Z,84.67
2023-01-13T07:01:00.237Z,85.68
2023-01-13T07:04:03.246Z,85.87
2023-01-13T07:07:07.813Z,85.66
2023-01-13T07:10:13.299Z,85.25
2023-01-13T07:13:34.746Z,85.45
2023-01-13T07:16:37.612Z,85.16
2023-01-13T07:19:40.457Z,85.42
2023-01-13T07:22:46.036Z,84.27
2023-01-13T07:25:49.337Z,84.61
2023-01-13T07:28:52.102Z,83.91
2023-01-13T07:31:55.087Z,83.49
2023-01-13T07:34:58.665Z,82.90
2023-01-13T07:38:01.481Z,82.03
2023-01-13T07:41:24.325Z,79.73
2023-01-13T07:44:27.809Z,79.55
2023-01-13T07:47:30.568Z,79.59
2023-01-13T07:50:33.359Z,80.55
2023-01-13T07:53:36.962Z,80.11
2023-01-13T07:56:39.915Z,80.36
2023-01-13T07:59:42.797Z,78.77
2023-01-13T08:02:45.713Z,78.61
2023-01-13T08:05:49.081Z,79.81
2023-01-13T08:08:51.743Z,79.16
2023-01-13T08:12:13.382Z,79.16
2023-01-13T08:15:16.406Z,79.37
2023-01-13T08:18:22.635Z,79.32
2023-01-13T08:21:25.552Z,79.50
2023-01-13T08:24:28.533Z,78.90
2023-01-13T08:27:31.008Z,79.41
2023-01-13T08:30:34.333Z,79.50
2023-01-13T08:33:37.650Z,79.63
2023-01-13T08:36:41.222Z,79.12
2023-01-13T08:39:43.885Z,79.44
2023-01-13T08:42:48.570Z,78.79
2023-01-13T08:45:57.418Z,78.38
2023-01-13T08:49:00.893Z,78.29
2023-01-13T08:52:04.163Z,78.66
2023-01-13T08:55:08.585Z,78.88
2023-01-13T08:58:15.782Z,78.86
2023-01-13T09:01:23.178Z,78.80
2023-01-13T09:04:28.018Z,78.78
2023-01-13T09:07:31.367Z,78.31
2023-01-13T09:10:35.656Z,78.95
2023-01-13T09:13:39.748Z,80.22
2023-01-13T09:16:42.187Z,79.21
2023-01-13T09:19:45.248Z,79.50
2023-01-13T09:22:48.787Z,80.25
2023-01-13T09:25:52.949Z,79.67
2023-01-13T09:28:55.451Z,79.40
2023-01-13T09:31:58.570Z,79.20
2023-01-13T09:35:01.394Z,79.64
2023-01-13T09:38:06.201Z,78.53
2023-01-13T09:41:43.262Z,78.72
2023-01-13T09:45:01.871Z,79.03
2023-01-13T09:48:13.757Z,78.17
2023-01-13T09:51:31.967Z,78.63
2023-01-13T09:55:03.994Z,79.57
2023-01-13T09:58:19.241Z,79.80
2023-01-13T10:01:38.683Z,80.32
2023-01-13T10:04:41.927Z,81.38
2023-01-13T10:07:52.372Z,82.77
2023-01-13T10:10:57.320Z,82.25
2023-01-13T10:14:03.162Z,82.66
2023-01-13T10:17:34.251Z,82.21
2023-01-13T10:20:40.578Z,80.84
2023-01-13T10:23:52.837Z,81.75
2023-01-13T10:27:01.593Z,82.61
2023-01-13T10:30:20.176Z,82.35
2023-01-13T10:33:30.774Z,81.07
2023-01-13T10:36:34.102Z,81.01
2023-01-13T10:39:45.954Z,80.37
2023-01-13T10:42:49.192Z,80.55
2023-01-13T10:46:05.907Z,80.50
2023-01-13T10:49:36.556Z,80.90
2023-01-13T10:52:54.734Z,81.32
2023-01-13T10:56:03.460Z,81.67
2023-01-13T10:59:18.619Z,81.58
2023-01-13T11:02:36.868Z,80.65
2023-01-13T11:05:40.199Z,80.50
2023-01-13T11:08:46.271Z,80.30
2023-01-13T11:11:55.444Z,80.58
2023-01-13T11:15:02.516Z,80.54
2023-01-13T11:18:14.021Z,80.46
2023-01-13T11:21:35.269Z,79.90
2023-01-13T11:24:57.327Z,79.44
2023-01-13T11:28:26.993Z,79.47
2023-01-13T11:31:43.167Z,79.26
2023-01-13T11:34:54.649Z,79.58
2023-01-13T11:38:09.603Z,79.37
2023-01-13T11:41:20.979Z,78.58
2023-01-13T11:44:36.034Z,78.77
2023-01-13T11:47:39.525Z,79.04
2023-01-13T11:51:00.084Z,80.06
2023-01-13T11:54:29.485Z,79.79
2023-01-13T11:57:57.968Z,80.35
2023-01-13T12:01:22.295Z,80.71
2023-01-13T12:04:53.225Z,81.38
2023-01-13T12:08:04.885Z,81.97
2023-01-13T12:11:10.649Z,81.91
2023-01-13T12:14:33.571Z,81.23
2023-01-13T12:17:48.193Z,81.46
2023-01-13T12:21:06.269Z,82.02
2023-01-13T12:24:30.040Z,81.54
2023-01-13T12:27:32.904Z,81.02
2023-01-13T12:30:50.908Z,80.49
2023-01-13T12:34:26.198Z,79.96
2023-01-13T12:37:44.952Z,80.46
2023-01-13T12:41:01.844Z,81.24
2023-01-13T12:44:17.137Z,80.80
2023-01-13T12:47:52.864Z,81.76
2023-01-13T12:51:00.772Z,81.85
2023-01-13T12:54:51.278Z,81.89
2023-01-13T12:58:06.176Z,82.06
2023-01-13T13:01:14.440Z,81.63
2023-01-13T13:04:44.029Z,81.80
2023-01-13T13:08:14.595Z,81.73
2023-01-13T13:11:40.963Z,81.52
2023-01-13T13:14:44.287Z,80.62
2023-01-13T13:18:19.647Z,80.66
2023-01-13T13:21:22.509Z,80.44
2023-01-13T13:24:26.558Z,80.12
2023-01-13T13:27:41.202Z,79.88
2023-01-13T13:30:55.884Z,79.94
2023-01-13T13:34:19.291Z,80.01
2023-01-13T13:38:19.738Z,80.40
2023-01-13T13:41:45.003Z,80.49
2023-01-13T13:45:08.116Z,80.65
2023-01-13T13:48:25.587Z,80.40
2023-01-13T13:51:38.405Z,80.99
2023-01-13T13:54:44.024Z,81.42
2023-01-13T13:57:49.885Z,81.29
2023-01-13T14:00:54.431Z,80.94
2023-01-13T14:04:09.603Z,81.70
2023-01-13T14:07:21.721Z,82.08
2023-01-13T14:10:33.273Z,82.02
2023-01-13T14:13:36.150Z,82.16
2023-01-13T14:16:40.782Z,82.32
2023-01-13T14:19:47.700Z,82.71
2023-01-13T14:22:54.873Z,82.65
2023-01-13T14:26:08.847Z,82.86
2023-01-13T14:29:18.464Z,82.94
2023-01-13T14:32:26.311Z,83.18
2023-01-13T14:35:30.084Z,83.16
2023-01-13T14:38:33.561Z,83.09
2023-01-13T14:41:50.952Z,82.97
2023-01-13T14:44:56.274Z,83.09
2023-01-13T14:48:01.550Z,83.13
2023-01-13T14:51:14.319Z,83.21
2023-01-13T14:54:47.517Z,83.09
2023-01-13T14:57:54.305Z,83.66
2023-01-13T15:01:25.822Z,83.82
2023-01-13T15:04:39.063Z,83.39
2023-01-13T15:07:56.397Z,83.88
2023-01-13T15:11:02.742Z,83.94
2023-01-13T15:14:10.966Z,84.00
2023-01-13T15:17:17.477Z,84.10
2023-01-13T15:20:25.920Z,84.35
2023-01-13T15:23:29.681Z,84.73
2023-01-13T15:26:35.779Z,85.10
2023-01-13T15:29:39.065Z,85.12
2023-01-13T15:32:44.737Z,85.31
2023-01-13T15:35:52.779Z,85.07
2023-01-13T15:38:59.467Z,85.45
2023-01-13T15:42:21.492Z,85.73
2023-01-13T15:45:43.876Z,85.82
2023-01-13T15:48:53.010Z,85.76
2023-01-13T15:51:56.470Z,85.62
2023-01-13T15:54:59.808Z,85.68
2023-01-13T15:58:03.007Z,85.78
2023-01-13T16:01:10.139Z,85.88
2023-01-13T16:04:16.243Z,85.79
2023-01-13T16:07:25.092Z,85.98
2023-01-13T16:10:28.523Z,85.82
2023-01-13T16:13:33.892Z,85.90
2023-01-13T16:16:40.867Z,85.30
2023-01-13T16:19:44.940Z,85.48
2023-01-13T16:22:50.693Z,85.31
2023-01-13T16:25:56.672Z,85.35
2023-01-13T16:28:59.936Z,85.44
2023-01-13T16:32:03.197Z,85.38
2023-01-13T16:35:06.896Z,85.39
2023-01-13T16:38:21.411Z,85.23
2023-01-13T16:41:25.159Z,85.22
2023-01-13T16:44:28.628Z,85.22
2023-01-13T16:47:31.858Z,85.43
2023-01-13T16:50:41.853Z,85.62
2023-01-13T16:53:45.398Z,85.71
2023-01-13T16:56:48.843Z,86.03
2023-01-13T16:59:52.162Z,85.79
2023-01-13T17:03:05.258Z,86.00
2023-01-13T17:06:11.175Z,86.04
2023-01-13T17:09:23.411Z,85.92
2023-01-13T17:12:26.660Z,85.56
2023-01-13T17:15:30.051Z,85.77
2023-01-13T17:18:36.165Z,85.85
2023-01-13T17:21:51.183Z,85.46
2023-01-13T17:24:54.535Z,85.60
2023-01-13T17:28:00.904Z,85.60
2023-01-13T17:31:04.273Z,85.66
2023-01-13T17:34:08.380Z,85.78
2023-01-13T17:37:15.173Z,84.88
2023-01-13T17:40:20.880Z,85.75
2023-01-13T17:43:25.336Z,85.36
2023-01-13T17:46:31.550Z,85.57
2023-01-13T17:49:40.337Z,85.93
2023-01-13T17:52:48.817Z,85.95
2023-01-13T17:55:58.413Z,86.00
2023-01-13T17:59:36.168Z,84.83
2023-01-13T18:02:48.986Z,85.53
2023-01-13T18:05:52.312Z,86.14
2023-01-13T18:08:55.600Z,86.45
2023-01-13T18:12:00.458Z,86.52
2023-01-13T18:15:04.145Z,86.51
2023-01-13T18:18:07.413Z,86.40
2023-01-13T18:21:47.919Z,86.59
2023-01-13T18:25:13.472Z,86.15
2023-01-13T18:28:17.029Z,85.89
2023-01-13T18:31:20.100Z,86.28
2023-01-13T18:34:23.468Z,86.33
2023-01-13T18:37:27.302Z,86.59
2023-01-13T18:40:30.748Z,86.75
2023-01-13T18:44:10.816Z,86.80
2023-01-13T18:47:14.238Z,86.48
2023-01-13T18:50:19.651Z,86.56
2023-01-13T18:53:22.922Z,86.58
2023-01-13T18:56:26.259Z,86.74
2023-01-13T18:59:30.018Z,86.63
2023-01-13T19:02:33.306Z,86.56
2023-01-13T19:05:38.271Z,86.37
2023-01-13T19:08:42.175Z,86.38
2023-01-13T19:11:49.587Z,86.27
2023-01-13T19:14:54.398Z,86.15
2023-01-13T19:17:57.279Z,85.87
2023-01-13T19:21:05.152Z,85.96
2023-01-13T19:24:08.390Z,85.99
2023-01-13T19:27:14.545Z,85.97
2023-01-13T19:30:17.720Z,85.99
2023-01-13T19:33:20.661Z,86.05
2023-01-13T19:36:23.502Z,86.25
2023-01-13T19:39:26.545Z,86.19
2023-01-13T19:42:48.359Z,86.28
2023-01-13T19:45:51.367Z,85.93
2023-01-13T19:48:54.291Z,86.08
2023-01-13T19:51:57.461Z,86.31
2023-01-13T19:55:01.958Z,86.40
2023-01-13T19:58:05.583Z,86.44
2023-01-13T20:01:10.268Z,86.34
2023-01-13T20:04:14.479Z,85.88
2023-01-13T20:07:17.593Z,85.47
2023-01-13T20:10:22.101Z,85.03
2023-01-13T20:13:25.275Z,85.30
2023-01-13T20:16:30.040Z,86.27
2023-01-13T20:19:33.482Z,86.61
2023-01-13T20:22:39.804Z,85.57
2023-01-13T20:25:43.389Z,86.19
2023-01-13T20:28:47.288Z,86.76
2023-01-13T20:31:51.024Z,86.06
2023-01-13T20:34:54.055Z,86.63
2023-01-13T20:37:56.947Z,86.71
2023-01-13T20:41:01.388Z,87.03
2023-01-13T20:44:05.327Z,87.17
2023-01-13T20:47:08.718Z,87.26
2023-01-13T20:50:12.684Z,87.29
2023-01-13T20:53:15.544Z,86.80
2023-01-13T20:56:18.387Z,87.37
2023-01-13T20:59:22.916Z,86.74
2023-01-13T21:02:25.740Z,87.40
2023-01-13T21:05:29.569Z,86.62
2023-01-13T21:08:32.514Z,86.66
2023-01-13T21:11:54.005Z,87.33
2023-01-13T21:15:23.542Z,88.08
2023-01-13T21:18:45.523Z,88.81
2023-01-13T21:21:48.376Z,89.30
2023-01-13T21:24:51.353Z,89.48
2023-01-13T21:27:54.900Z,89.64
2023-01-13T21:31:09.226Z,89.83
2023-01-13T21:34:12.678Z,89.89
2023-01-13T21:37:16.425Z,89.67
2023-01-13T21:40:19.859Z,89.63
2023-01-13T21:43:41.937Z,89.63
2023-01-13T21:47:03.881Z,89.81
2023-01-13T21:50:10.348Z,90.12
2023-01-13T21:53:13.282Z,90.05
2023-01-13T21:56:16.125Z,89.59
2023-01-13T21:59:19.669Z,89.74
2023-01-13T22:02:29.153Z,89.95
2023-01-13T22:05:32.634Z,90.29
2023-01-13T22:08:35.754Z,90.45
2023-01-13T22:11:39.026Z,90.63
2023-01-13T22:14:41.951Z,90.68
2023-01-13T22:17:48.814Z,90.26
2023-01-13T22:20:51.659Z,90.64
2023-01-13T22:23:54.752Z,89.55
2023-01-13T22:26:57.206Z,90.85
2023-01-13T22:30:00.339Z,91.86
2023-01-13T22:33:03.010Z,92.38
2023-01-13T22:36:08.121Z,89.57
2023-01-13T22:39:11.314Z,90.82
2023-01-13T22:42:14.701Z,90.94
2023-01-13T22:45:18.835Z,91.43
2023-01-13T22:48:21.929Z,91.99
2023-01-13T22:51:25.226Z,92.51
2023-01-13T22:54:28.345Z,92.87
2023-01-13T22:57:35.949Z,93.15
2023-01-13T23:00:46.832Z,93.42
2023-01-13T23:03:50.389Z,93.41
2023-01-13T23:06:53.560Z,93.43
2023-01-13T23:09:56.111Z,93.27
2023-01-13T23:12:59.196Z,93.20
2023-01-13T23:16:03.568Z,92.99
2023-01-13T23:19:07.558Z,92.84
2023-01-13T23:22:09.985Z,92.55
2023-01-13T23:25:13.045Z,92.41
2023-01-13T23:28:15.621Z,91.70
2023-01-13T23:31:21.282Z,91.87
2023-01-13T23:34:23.798Z,92.20
2023-01-13T23:37:26.910Z,92.52
2023-01-13T23:40:29.429Z,92.97
2023-01-13T23:43:32.883Z,93.21
2023-01-13T23:46:35.641Z,93.40
2023-01-13T23:49:38.964Z,92.69
2023-01-13T23:52:41.503Z,92.58
2023-01-13T23:55:44.572Z,92.42
2023-01-13T23:58:48.110Z,92.42
